Time;durP1;ratioP1;P1;durP2;ratioP2;P2;SDS_P1;SDS_P2;PMS_P1;PMS_P2;Temp;Humidity;BMP_temperature;BMP_pressure;BME280_temperature;BME280_humidity;BME280_pressure;Samples;Min_cycle;Max_cycle;Signal;HPM_P1;HPM_P2
2022/05/28 00:00:01;;;;;;;0.30;0.30;;;;;;;10.78;100.00;100870.91;7389865;19;20078;-80
2022/05/28 00:02:27;;;;;;;0.35;0.32;;;;;;;10.76;100.00;100865.81;7390434;19;20104;-81
2022/05/28 00:04:53;;;;;;;1.08;0.82;;;;;;;10.82;100.00;100861.19;7387690;19;20014;-80
2022/05/28 00:07:19;;;;;;;4.30;0.43;;;;;;;10.91;100.00;100874.41;7387309;19;20045;-83
2022/05/28 00:09:45;;;;;;;0.85;0.85;;;;;;;10.91;100.00;100863.28;7387479;19;20022;-81
2022/05/28 00:12:12;;;;;;;0.63;0.63;;;;;;;10.93;100.00;100866.38;7389248;19;20031;-80
2022/05/28 00:14:39;;;;;;;0.60;0.60;;;;;;;10.90;100.00;100861.69;7387024;19;20503;-80
2022/05/28 00:17:06;;;;;;;1.38;0.77;;;;;;;10.88;100.00;100873.31;7394247;19;20021;-83
2022/05/28 00:19:32;;;;;;;0.10;0.10;;;;;;;10.85;100.00;100865.09;7392487;19;20015;-83
2022/05/28 00:21:58;;;;;;;0.98;0.63;;;;;;;10.80;100.00;100865.66;7392808;19;20010;-84
2022/05/28 00:24:24;;;;;;;0.40;0.40;;;;;;;10.77;100.00;100869.34;7389970;19;20015;-82
2022/05/28 00:26:51;;;;;;;0.22;0.22;;;;;;;10.80;100.00;100874.03;7390415;19;20010;-83
2022/05/28 00:29:17;;;;;;;1.65;0.60;;;;;;;10.87;100.00;100873.78;7394170;19;20019;-83
2022/05/28 00:31:43;;;;;;;12.30;0.63;;;;;;;10.83;100.00;100868.31;7391541;19;20487;-83
2022/05/28 00:34:09;;;;;;;1.10;0.50;;;;;;;10.84;100.00;100844.00;7389225;19;20027;-84
2022/05/28 00:36:35;;;;;;;0.10;0.10;;;;;;;10.84;100.00;100830.09;7391111;19;20461;-83
2022/05/28 00:39:01;;;;;;;0.25;0.10;;;;;;;10.88;100.00;100825.16;7389936;19;20471;-84
2022/05/28 00:41:28;;;;;;;0.50;0.50;;;;;;;10.96;100.00;100832.03;7391671;19;20022;-82
2022/05/28 00:43:54;;;;;;;0.35;0.35;;;;;;;11.01;100.00;100850.94;7390318;19;20376;-84
2022/05/28 00:46:23;;;;;;;7.15;0.55;;;;;;;11.01;100.00;100839.78;7391934;19;20025;-82
2022/05/28 00:48:55;;;;;;;0.30;0.30;;;;;;;10.99;100.00;100842.25;7390703;19;20019;-83
2022/05/28 00:51:27;;;;;;;4.30;0.70;;;;;;;11.00;100.00;100849.41;7389104;19;20483;-82
2022/05/28 00:53:56;;;;;;;0.30;0.30;;;;;;;10.97;100.00;100844.72;7391184;19;20424;-83
2022/05/28 00:56:24;;;;;;;2.53;0.68;;;;;;;10.95;100.00;100849.97;7394356;19;20006;-83
2022/05/28 00:58:51;;;;;;;9.18;0.52;;;;;;;11.00;100.00;100858.53;7398790;19;20033;-83
2022/05/28 01:01:22;;;;;;;0.65;0.43;;;;;;;11.10;100.00;100864.94;7398446;19;20078;-82
2022/05/28 01:03:59;;;;;;;0.73;0.73;;;;;;;11.09;100.00;100866.16;7398124;19;20010;-82
2022/05/28 01:06:35;;;;;;;0.50;0.50;;;;;;;11.06;100.00;100862.31;7399387;19;20082;-83
2022/05/28 01:09:11;;;;;;;3.28;0.73;;;;;;;11.04;100.00;100858.41;7395639;19;20018;-83
2022/05/28 01:11:47;;;;;;;0.20;0.20;;;;;;;10.98;100.00;100851.88;7399148;19;20014;-84
2022/05/28 01:14:20;;;;;;;0.40;0.40;;;;;;;10.90;100.00;100850.56;7399485;19;20010;-84
2022/05/28 01:16:54;;;;;;;0.20;0.10;;;;;;;10.89;100.00;100852.59;7397786;19;20073;-84
2022/05/28 01:19:50;;;;;;;5.60;1.13;;;;;;;10.87;100.00;100860.59;7396637;19;20011;-84
2022/05/28 01:22:31;;;;;;;0.38;0.38;;;;;;;10.87;100.00;100865.41;7401344;19;20082;-85
2022/05/28 01:25:18;;;;;;;;;;;;;;;10.95;100.00;100863.91;7398808;19;20018;-84
2022/05/28 01:28:07;;;;;;;1.00;0.47;;;;;;;10.89;100.00;100854.59;7396011;19;19919;-84
2022/05/28 01:30:33;;;;;;;0.30;0.30;;;;;;;10.87;100.00;100876.56;7396255;19;20030;-84
2022/05/28 01:33:03;;;;;;;4.82;0.93;;;;;;;10.86;100.00;100867.41;7398732;19;20006;-83
2022/05/28 01:35:30;;;;;;;0.20;0.20;;;;;;;10.90;100.00;100872.84;7398722;19;20363;-84
2022/05/28 01:37:58;;;;;;;0.20;0.20;;;;;;;10.94;100.00;100876.28;7397101;19;20025;-84
2022/05/28 01:40:26;;;;;;;0.73;0.73;;;;;;;10.96;100.00;100877.38;7396408;19;20041;-84
2022/05/28 01:42:54;;;;;;;13.70;0.50;;;;;;;10.94;100.00;100873.50;7400920;19;20015;-84
2022/05/28 01:45:26;;;;;;;0.10;0.10;;;;;;;10.98;100.00;100874.94;7396628;19;20010;-84
2022/05/28 01:47:55;;;;;;;1.85;0.57;;;;;;;11.03;100.00;100876.34;7396420;19;20026;-82
2022/05/28 01:50:24;;;;;;;15.52;0.57;;;;;;;11.07;100.00;100865.84;7390020;19;20038;-82
2022/05/28 01:52:51;;;;;;;0.28;0.28;;;;;;;11.13;100.00;100872.41;7395219;19;20078;-82
2022/05/28 01:55:20;;;;;;;1.45;0.98;;;;;;;11.11;100.00;100856.13;7394098;19;20369;-82
2022/05/28 01:57:46;;;;;;;1.65;0.43;;;;;;;11.07;100.00;100863.06;7391632;19;20453;-83
2022/05/28 02:00:13;;;;;;;0.32;0.32;;;;;;;11.03;100.00;100865.22;7392608;19;20050;-82
2022/05/28 02:02:39;;;;;;;0.20;0.20;;;;;;;11.07;100.00;100857.50;7395098;19;20017;-82
2022/05/28 02:05:06;;;;;;;0.15;0.15;;;;;;;11.11;100.00;100866.53;7391267;19;20011;-83
2022/05/28 02:07:32;;;;;;;9.98;0.50;;;;;;;11.15;100.00;100867.91;7391588;19;20025;-82
2022/05/28 02:10:03;;;;;;;0.43;0.40;;;;;;;11.22;100.00;100872.44;7391092;19;20472;-82
2022/05/28 02:12:44;;;;;;;0.35;0.35;;;;;;;11.31;100.00;100875.31;7392696;19;20022;-82
2022/05/28 02:15:38;;;;;;;0.53;0.30;;;;;;;11.41;100.00;100874.13;7391273;19;20052;-82
2022/05/28 02:18:26;;;;;;;0.50;0.50;;;;;;;11.49;100.00;100878.22;7392471;19;20276;-83
2022/05/28 02:21:13;;;;;;;0.55;0.40;;;;;;;11.59;100.00;100876.22;7392959;19;20701;-81
2022/05/28 02:23:49;;;;;;;2.00;0.75;;;;;;;11.67;100.00;100874.75;7395338;19;20377;-81
2022/05/28 02:26:20;;;;;;;2.40;0.45;;;;;;;11.75;100.00;100878.81;7391696;19;20023;-81
2022/05/28 02:28:48;;;;;;;2.38;0.52;;;;;;;11.82;100.00;100882.13;7390581;19;20033;-82
2022/05/28 02:31:17;;;;;;;1.38;0.60;;;;;;;11.85;100.00;100878.41;7393631;19;20345;-82
2022/05/28 02:33:44;;;;;;;1.85;0.82;;;;;;;11.88;100.00;100874.69;7390897;19;20011;-81
2022/05/28 02:36:15;;;;;;;0.82;0.47;;;;;;;11.88;100.00;100873.91;7390667;19;20505;-82
2022/05/28 02:38:42;;;;;;;2.30;0.68;;;;;;;11.91;100.00;100862.59;7387571;19;20107;-81
2022/05/28 02:41:08;;;;;;;0.73;0.70;;;;;;;11.98;100.00;100879.06;7391632;19;20041;-81
2022/05/28 02:43:35;;;;;;;3.10;1.23;;;;;;;12.01;100.00;100878.16;7390227;19;20027;-81
2022/05/28 02:46:03;;;;;;;4.35;0.28;;;;;;;11.99;100.00;100875.06;7389688;19;20018;-80
2022/05/28 02:48:30;;;;;;;0.52;0.52;;;;;;;11.99;100.00;100875.06;7392001;19;20070;-83
2022/05/28 02:51:15;;;;;;;6.00;0.38;;;;;;;12.02;100.00;100870.53;7389569;19;20069;-82
2022/05/28 02:53:41;;;;;;;0.10;0.10;;;;;;;12.05;100.00;100867.63;7391023;19;20022;-82
2022/05/28 02:56:09;;;;;;;0.85;0.52;;;;;;;12.08;100.00;100877.09;7389590;19;20686;-83
2022/05/28 02:58:35;;;;;;;0.52;0.50;;;;;;;12.07;100.00;100875.53;7389637;19;20354;-83
2022/05/28 03:01:03;;;;;;;0.20;0.20;;;;;;;12.09;100.00;100873.81;7388840;19;20010;-80
2022/05/28 03:03:29;;;;;;;2.05;0.47;;;;;;;12.10;100.00;100880.97;7388599;19;20399;-80
2022/05/28 03:05:55;;;;;;;0.20;0.20;;;;;;;12.01;100.00;100880.16;7395048;19;20014;-84
2022/05/28 03:08:21;;;;;;;0.20;0.20;;;;;;;11.93;100.00;100885.25;7395407;19;20114;-84
2022/05/28 03:10:47;;;;;;;5.97;1.73;;;;;;;11.88;100.00;100885.88;7392917;19;20015;-84
2022/05/28 03:13:14;;;;;;;2.83;0.30;;;;;;;11.87;100.00;100878.72;7397776;19;20020;-85
2022/05/28 03:15:40;;;;;;;0.50;0.25;;;;;;;11.74;100.00;100878.03;7395469;19;20015;-85
2022/05/28 03:18:06;;;;;;;0.63;0.38;;;;;;;11.84;100.00;100884.44;7395166;19;20021;-84
2022/05/28 03:20:32;;;;;;;13.60;0.73;;;;;;;11.85;100.00;100881.19;7393606;19;20014;-82
2022/05/28 03:22:59;;;;;;;0.60;0.60;;;;;;;11.87;100.00;100877.94;7397744;19;20015;-85
2022/05/28 03:25:26;;;;;;;0.40;0.30;;;;;;;11.78;100.00;100878.66;7393452;19;20018;-84
2022/05/28 03:27:52;;;;;;;1.23;0.57;;;;;;;11.62;100.00;100873.31;7394019;19;20477;-84
2022/05/28 03:30:18;;;;;;;3.90;0.73;;;;;;;11.40;100.00;100878.16;7392876;19;20508;-84
2022/05/28 03:32:44;;;;;;;0.10;0.10;;;;;;;11.20;100.00;100874.91;7396837;19;20034;-83
2022/05/28 03:35:10;;;;;;;1.05;0.60;;;;;;;11.09;100.00;100882.91;7393728;19;20015;-84
2022/05/28 03:37:36;;;;;;;0.85;0.50;;;;;;;11.06;100.00;100892.19;7394411;19;20025;-83
2022/05/28 03:40:04;;;;;;;0.63;0.38;;;;;;;11.13;100.00;100886.34;7393527;19;20011;-83
2022/05/28 03:42:30;;;;;;;5.68;1.25;;;;;;;11.24;100.00;100875.59;7394039;19;20014;-84
2022/05/28 03:44:56;;;;;;;7.28;0.30;;;;;;;11.23;100.00;100885.97;7392785;19;20624;-84
2022/05/28 03:47:22;;;;;;;0.35;0.35;;;;;;;11.23;100.00;100882.38;7393685;19;20015;-84
2022/05/28 03:49:48;;;;;;;4.65;0.70;;;;;;;11.18;100.00;100874.59;7392614;19;20489;-84
2022/05/28 03:52:14;;;;;;;0.63;0.40;;;;;;;11.19;100.00;100867.81;7395126;19;20350;-84
2022/05/28 03:54:44;;;;;;;0.73;0.73;;;;;;;11.18;100.00;100872.59;7398359;19;20010;-84
2022/05/28 03:57:20;;;;;;;1.35;0.50;;;;;;;11.27;100.00;100872.66;7394540;19;20022;-84
2022/05/28 03:59:46;;;;;;;2.40;0.80;;;;;;;11.32;100.00;100877.66;7391900;19;20015;-84
2022/05/28 04:02:13;;;;;;;0.90;0.55;;;;;;;11.45;100.00;100874.78;7394948;19;20029;-83
2022/05/28 04:04:39;;;;;;;4.47;1.23;;;;;;;11.47;100.00;100875.09;7393633;19;20010;-84
2022/05/28 04:07:05;;;;;;;4.82;0.77;;;;;;;11.46;100.00;100876.31;7394341;19;20018;-84
2022/05/28 04:09:32;;;;;;;6.30;0.55;;;;;;;11.28;100.00;100870.66;7391356;19;20498;-84
2022/05/28 04:11:58;;;;;;;5.45;0.88;;;;;;;11.31;100.00;100875.31;7393311;19;20018;-84
2022/05/28 04:14:24;;;;;;;1.10;0.32;;;;;;;11.48;100.00;100873.84;7392144;19;20015;-84
2022/05/28 04:16:50;;;;;;;0.38;0.38;;;;;;;11.58;100.00;100875.47;7391237;19;20563;-84
2022/05/28 04:19:16;;;;;;;2.05;0.63;;;;;;;11.61;100.00;100874.53;7391830;19;20337;-84
2022/05/28 04:21:42;;;;;;;0.77;0.50;;;;;;;11.62;100.00;100873.31;7393833;19;20023;-84
2022/05/28 04:24:09;;;;;;;0.35;0.35;;;;;;;11.61;100.00;100871.00;7395784;19;20021;-84
2022/05/28 04:26:35;;;;;;;0.22;0.22;;;;;;;11.52;100.00;100880.06;7391625;19;20091;-84
2022/05/28 04:29:01;;;;;;;0.73;0.43;;;;;;;11.54;100.00;100872.03;7391631;19;20015;-84
2022/05/28 04:31:28;;;;;;;7.72;1.23;;;;;;;11.48;100.00;100879.44;7395263;19;20077;-84
2022/05/28 04:33:54;;;;;;;0.50;0.50;;;;;;;11.43;100.00;100872.44;7397513;19;20041;-84
2022/05/28 04:36:20;;;;;;;3.03;1.13;;;;;;;11.41;100.00;100888.09;7399405;19;20007;-84
2022/05/28 04:38:46;;;;;;;0.17;0.17;;;;;;;11.33;100.00;100878.41;7399141;19;20014;-84
2022/05/28 04:41:12;;;;;;;0.20;0.20;;;;;;;11.30;100.00;100879.34;7400783;19;20022;-84
2022/05/28 04:43:38;;;;;;;17.90;1.40;;;;;;;11.27;100.00;100886.59;7400413;19;20719;-84
2022/05/28 04:46:05;;;;;;;8.85;0.70;;;;;;;11.24;100.00;100890.28;7399456;19;20015;-83
2022/05/28 04:48:34;;;;;;;0.20;0.20;;;;;;;11.19;100.00;100885.31;7399647;19;20026;-84
2022/05/28 04:51:00;;;;;;;0.50;0.38;;;;;;;11.11;100.00;100889.56;7400549;19;20022;-84
2022/05/28 04:53:26;;;;;;;3.50;0.60;;;;;;;11.03;100.00;100898.66;7394156;19;20010;-83
2022/05/28 04:55:53;;;;;;;0.63;0.60;;;;;;;10.94;100.00;100902.16;7399902;19;20014;-84
2022/05/28 04:58:19;;;;;;;0.40;0.40;;;;;;;10.86;100.00;100900.06;7399478;19;20094;-84
2022/05/28 05:00:46;;;;;;;2.70;0.60;;;;;;;10.73;100.00;100893.75;7395307;19;20074;-84
2022/05/28 05:03:13;;;;;;;0.73;0.73;;;;;;;10.59;100.00;100893.03;7402964;19;20006;-84
2022/05/28 05:05:40;;;;;;;0.17;0.17;;;;;;;10.57;100.00;100903.84;7398403;19;20014;-83
2022/05/28 05:08:06;;;;;;;0.57;0.57;;;;;;;10.64;100.00;100900.81;7398115;19;20033;-83
2022/05/28 05:10:32;;;;;;;0.32;0.32;;;;;;;10.49;100.00;100894.19;7394785;19;20035;-83
2022/05/28 05:13:00;;;;;;;0.25;0.25;;;;;;;10.41;100.00;100895.66;7400266;19;20019;-84
2022/05/28 05:15:27;;;;;;;0.95;0.25;;;;;;;10.30;100.00;100898.00;7399957;19;20043;-83
2022/05/28 05:17:53;;;;;;;1.38;0.80;;;;;;;10.31;100.00;100891.22;7397255;19;20015;-84
2022/05/28 05:20:19;;;;;;;0.47;0.47;;;;;;;10.37;100.00;100888.66;7398150;19;20014;-85
2022/05/28 05:22:45;;;;;;;0.85;0.70;;;;;;;10.38;100.00;100890.97;7403031;19;20104;-84
2022/05/28 05:25:14;;;;;;;0.50;0.50;;;;;;;10.41;100.00;100898.44;7398449;19;20048;-81
2022/05/28 05:27:42;;;;;;;0.45;0.40;;;;;;;10.43;100.00;100898.78;7397197;19;20029;-84
2022/05/28 05:30:08;;;;;;;0.30;0.30;;;;;;;10.45;100.00;100893.53;7393600;19;20041;-83
2022/05/28 05:32:35;;;;;;;0.30;0.30;;;;;;;10.51;100.00;100902.09;7398433;19;20490;-83
2022/05/28 05:35:01;;;;;;;4.03;0.75;;;;;;;10.55;100.00;100900.72;7396834;19;20014;-83
2022/05/28 05:37:27;;;;;;;1.20;0.47;;;;;;;10.51;100.00;100902.09;7396661;19;20040;-83
2022/05/28 05:39:53;;;;;;;0.68;0.40;;;;;;;10.73;100.00;100902.13;7396702;19;20015;-83
2022/05/28 05:42:19;;;;;;;0.40;0.15;;;;;;;10.87;100.00;100907.22;7400907;19;20042;-83
2022/05/28 05:44:46;;;;;;;1.40;0.60;;;;;;;10.92;100.00;100906.63;7397862;19;20014;-83
2022/05/28 05:47:12;;;;;;;0.20;0.20;;;;;;;11.03;100.00;100904.22;7398490;19;20015;-84
2022/05/28 05:49:38;;;;;;;10.90;0.85;;;;;;;11.18;100.00;100899.69;7394791;19;20014;-83
2022/05/28 05:52:05;;;;;;;0.30;0.22;;;;;;;11.31;100.00;100892.03;7399439;19;20480;-82
2022/05/28 05:54:32;;;;;;;0.68;0.50;;;;;;;11.43;100.00;100891.19;7401052;19;20031;-84
2022/05/28 05:56:58;;;;;;;1.65;0.52;;;;;;;11.48;100.00;100890.59;7396889;19;20032;-89
2022/05/28 05:59:24;;;;;;;2.22;0.40;;;;;;;11.49;100.00;100886.56;7397574;19;20026;-83
2022/05/28 06:01:50;;;;;;;0.35;0.35;;;;;;;11.62;100.00;100889.28;7398464;19;20481;-85
2022/05/28 06:04:16;;;;;;;0.55;0.32;;;;;;;11.73;100.00;100882.06;7395008;19;20037;-84
2022/05/28 06:06:42;;;;;;;2.10;0.57;;;;;;;11.84;100.00;100895.59;7392820;19;20007;-85
2022/05/28 06:09:09;;;;;;;1.95;0.43;;;;;;;11.89;100.00;100892.97;7394937;19;20046;-86
2022/05/28 06:11:35;;;;;;;5.95;0.55;;;;;;;12.01;100.00;100894.91;7396936;19;20021;-84
2022/05/28 06:14:01;;;;;;;1.10;0.55;;;;;;;12.06;100.00;100891.50;7397031;19;20014;-84
2022/05/28 06:16:28;;;;;;;1.77;0.60;;;;;;;12.07;100.00;100904.22;7398050;19;20011;-84
2022/05/28 06:18:54;;;;;;;1.92;0.70;;;;;;;12.07;100.00;100893.06;7396126;19;20461;-83
2022/05/28 06:21:20;;;;;;;4.38;1.63;;;;;;;12.05;100.00;100901.13;7396786;19;20010;-84
2022/05/28 06:23:46;;;;;;;9.77;0.47;;;;;;;12.13;100.00;100902.38;7398564;19;20348;-84
2022/05/28 06:26:13;;;;;;;3.25;0.45;;;;;;;12.22;100.00;100900.84;7396803;19;20014;-83
2022/05/28 06:28:40;;;;;;;1.27;0.63;;;;;;;12.40;100.00;100909.28;7395209;19;20070;-83
2022/05/28 06:31:09;;;;;;;5.38;1.13;;;;;;;12.48;100.00;100893.75;7395251;19;20014;-84
2022/05/28 06:33:37;;;;;;;0.40;0.40;;;;;;;11.86;100.00;100893.13;7394599;19;20027;-83
2022/05/28 06:36:05;;;;;;;2.40;0.95;;;;;;;12.05;100.00;100901.13;7394589;19;20022;-83
2022/05/28 06:38:32;;;;;;;2.78;0.77;;;;;;;12.49;100.00;100896.13;7395848;19;20018;-83
2022/05/28 06:40:59;;;;;;;0.30;0.30;;;;;;;11.98;100.00;100895.81;7392910;19;20011;-83
2022/05/28 06:43:27;;;;;;;0.50;0.32;;;;;;;12.61;100.00;100895.19;7393571;19;20453;-83
2022/05/28 06:45:54;;;;;;;7.03;0.70;;;;;;;12.58;100.00;100893.31;7395338;19;20465;-83
2022/05/28 06:48:20;;;;;;;0.10;0.10;;;;;;;12.76;100.00;100898.13;7394924;19;20014;-82
2022/05/28 06:51:03;;;;;;;0.60;0.60;;;;;;;12.76;100.00;100898.13;7395550;19;20019;-83
2022/05/28 06:53:33;;;;;;;1.60;0.52;;;;;;;12.77;100.00;100894.13;7395370;19;20011;-83
2022/05/28 06:55:59;;;;;;;0.25;0.25;;;;;;;12.82;100.00;100893.50;7393814;19;20022;-84
2022/05/28 06:58:26;;;;;;;0.20;0.20;;;;;;;12.98;100.00;100898.75;7394298;19;20014;-84
2022/05/28 07:00:52;;;;;;;0.30;0.30;;;;;;;12.93;100.00;100891.78;7394655;19;20019;-84
2022/05/28 07:03:21;;;;;;;0.30;0.30;;;;;;;12.97;100.00;100891.63;7397281;19;20326;-84
2022/05/28 07:05:48;;;;;;;0.63;0.50;;;;;;;13.09;100.00;100892.72;7393613;19;20097;-84
2022/05/28 07:08:14;;;;;;;1.95;0.38;;;;;;;13.16;100.00;100890.41;7393089;19;20018;-83
2022/05/28 07:10:45;;;;;;;2.17;0.38;;;;;;;13.32;100.00;100894.88;7392586;19;20018;-84
2022/05/28 07:13:12;;;;;;;0.20;0.20;;;;;;;13.47;100.00;100896.53;7396191;19;20365;-83
2022/05/28 07:15:38;;;;;;;2.00;0.82;;;;;;;13.71;100.00;100898.66;7399020;19;20010;-83
2022/05/28 07:18:05;;;;;;;0.68;0.30;;;;;;;13.61;100.00;100895.91;7394052;19;20014;-83
2022/05/28 07:20:31;;;;;;;4.40;0.43;;;;;;;13.60;100.00;100888.72;7389935;19;20015;-83
2022/05/28 07:22:57;;;;;;;9.13;1.60;;;;;;;13.79;100.00;100894.28;7396643;19;20014;-83
2022/05/28 07:25:24;;;;;;;0.40;0.40;;;;;;;13.66;100.00;100898.03;7392178;19;20015;-83
2022/05/28 07:27:50;;;;;;;0.10;0.10;;;;;;;13.76;100.00;100895.22;7396503;19;20040;-83
2022/05/28 07:30:16;;;;;;;4.95;0.57;;;;;;;13.73;100.00;100893.38;7392804;19;20038;-83
2022/05/28 07:32:42;;;;;;;0.52;0.10;;;;;;;13.82;100.00;100904.53;7395763;19;20056;-83
2022/05/28 07:35:08;;;;;;;0.10;0.10;;;;;;;13.80;100.00;100910.59;7394793;19;20015;-83
2022/05/28 07:37:34;;;;;;;0.68;0.52;;;;;;;13.91;100.00;100918.50;7395620;19;20042;-84
2022/05/28 07:40:01;;;;;;;2.05;0.10;;;;;;;13.92;100.00;100911.66;7388798;19;20014;-83
2022/05/28 07:42:27;;;;;;;2.92;0.60;;;;;;;13.99;100.00;100914.13;7395138;19;20477;-83
2022/05/28 07:44:53;;;;;;;1.38;0.60;;;;;;;14.15;100.00;100910.91;7391229;19;20018;-84
2022/05/28 07:47:20;;;;;;;0.40;0.40;;;;;;;14.30;100.00;100914.59;7392405;19;20022;-83
2022/05/28 07:49:46;;;;;;;0.30;0.30;;;;;;;14.42;100.00;100913.63;7392734;19;20039;-83
2022/05/28 07:52:12;;;;;;;1.63;0.35;;;;;;;14.39;100.00;100909.72;7392643;19;20023;-83
2022/05/28 07:54:39;;;;;;;0.20;0.20;;;;;;;14.49;100.00;100921.66;7398032;19;20018;-84
2022/05/28 07:57:05;;;;;;;0.10;0.10;;;;;;;14.67;100.00;100918.72;7389913;19;20043;-83
2022/05/28 07:59:31;;;;;;;0.30;0.10;;;;;;;14.88;100.00;100912.03;7394700;19;20022;-84
2022/05/28 08:01:57;;;;;;;1.10;0.32;;;;;;;15.00;100.00;100902.59;7394387;19;20010;-83
2022/05/28 08:04:24;;;;;;;3.13;0.20;;;;;;;15.06;100.00;100895.06;7394025;19;20014;-83
2022/05/28 08:06:50;;;;;;;5.38;0.65;;;;;;;15.22;100.00;100901.47;7393219;19;20015;-83
2022/05/28 08:09:16;;;;;;;0.30;0.30;;;;;;;15.41;100.00;100891.59;7391784;19;20039;-83
2022/05/28 08:11:43;;;;;;;2.03;0.40;;;;;;;15.68;100.00;100899.75;7392793;19;20469;-84
2022/05/28 08:14:09;;;;;;;1.38;0.80;;;;;;;15.90;100.00;100897.28;7391478;19;20014;-81
2022/05/28 08:16:35;;;;;;;0.30;0.30;;;;;;;16.06;100.00;100902.41;7384185;19;20018;-80
2022/05/28 08:19:01;;;;;;;0.10;0.03;;;;;;;16.13;100.00;100896.38;7386884;19;20015;-83
2022/05/28 08:24:12;;;;;;;0.17;0.17;;;;;;;16.58;100.00;100904.22;7392889;19;20014;-81
2022/05/28 08:26:38;;;;;;;0.10;0.10;;;;;;;16.94;100.00;100896.44;7388566;19;20477;-82
2022/05/28 08:29:05;;;;;;;0.10;0.10;;;;;;;17.15;100.00;100889.53;7389761;19;20029;-81
2022/05/28 08:31:31;;;;;;;0.57;0.10;;;;;;;17.32;100.00;100890.47;7388350;19;20017;-80
2022/05/28 08:33:57;;;;;;;3.10;0.55;;;;;;;17.65;100.00;100893.59;7387180;19;20018;-81
2022/05/28 08:36:24;;;;;;;0.43;0.20;;;;;;;18.02;100.00;100893.63;7386244;19;20106;-81
2022/05/28 08:38:51;;;;;;;0.13;0.10;;;;;;;18.22;100.00;100896.34;7385559;19;20040;-82
2022/05/28 08:41:20;;;;;;;0.45;0.45;;;;;;;18.68;100.00;100893.28;7388596;19;20074;-83
2022/05/28 08:44:19;;;;;;;0.10;0.10;;;;;;;18.81;100.00;100896.41;7388366;19;20468;-81
2022/05/28 08:46:53;;;;;;;0.10;0.10;;;;;;;18.76;100.00;100883.03;7388358;19;20025;-80
2022/05/28 08:49:24;;;;;;;0.17;0.10;;;;;;;18.84;100.00;100895.41;7387269;19;20030;-81
2022/05/28 08:51:54;;;;;;;0.10;0.00;;;;;;;19.44;100.00;100885.56;7386469;19;20042;-83
2022/05/28 08:54:43;;;;;;;0.20;0.10;;;;;;;19.80;100.00;100878.09;7388967;19;20074;-80
2022/05/28 08:57:17;;;;;;;2.42;0.25;;;;;;;19.70;100.00;100874.00;7387214;19;20022;-81
2022/05/28 09:00:12;;;;;;;1.58;0.40;;;;;;;19.53;100.00;100877.59;7383278;19;20014;-81
2022/05/28 09:02:42;;;;;;;1.85;0.47;;;;;;;19.30;100.00;100881.66;7386932;19;20039;-81
2022/05/28 09:05:28;;;;;;;0.88;0.20;;;;;;;18.84;100.00;100884.13;7386408;19;20022;-81
2022/05/28 09:07:59;;;;;;;0.90;0.30;;;;;;;18.76;100.00;100877.41;7386094;19;20026;-81
2022/05/28 09:10:26;;;;;;;;;;;;;;;18.71;100.00;100876.09;7383306;19;20024;-81
2022/05/28 09:13:09;;;;;;;0.20;0.20;;;;;;;19.14;100.00;100876.75;7385672;19;19926;-80
2022/05/28 09:15:37;;;;;;;3.95;0.20;;;;;;;19.17;100.00;100867.25;7385448;19;20037;-81
2022/05/28 09:18:04;;;;;;;1.95;0.22;;;;;;;19.21;100.00;100873.41;7388692;19;20038;-80
2022/05/28 09:20:37;;;;;;;4.65;0.73;;;;;;;19.30;100.00;100876.00;7391506;19;20082;-81
2022/05/28 09:23:03;;;;;;;0.30;0.10;;;;;;;19.31;100.00;100876.78;7394634;19;20022;-79
2022/05/28 09:25:35;;;;;;;4.38;0.30;;;;;;;19.43;100.00;100873.47;7392125;19;20891;-80
2022/05/28 09:28:16;;;;;;;3.53;0.10;;;;;;;19.79;100.00;100868.09;7389608;19;20018;-80
2022/05/28 09:30:54;;;;;;;0.10;0.00;;;;;;;20.02;100.00;100866.78;7389388;19;20461;-81
2022/05/28 09:33:36;;;;;;;0.03;0.00;;;;;;;20.12;100.00;100865.97;7392903;19;20018;-80
2022/05/28 09:36:05;;;;;;;1.00;0.10;;;;;;;19.91;100.00;100875.25;7390028;19;20491;-77
2022/05/28 09:38:37;;;;;;;1.75;0.10;;;;;;;20.01;100.00;100871.66;7389265;19;20018;-79
2022/05/28 09:41:15;;;;;;;3.42;0.10;;;;;;;19.76;100.00;100871.94;7389294;19;20018;-80
2022/05/28 09:44:07;;;;;;;0.05;0.00;;;;;;;19.97;100.00;100878.84;7391265;19;20017;-81
2022/05/28 09:46:39;;;;;;;0.00;0.00;;;;;;;19.82;100.00;100858.56;7390475;19;20027;-79
2022/05/28 09:49:13;;;;;;;3.20;0.65;;;;;;;19.79;100.00;100865.28;7388749;19;20031;-80
2022/05/28 09:51:52;;;;;;;0.00;0.00;;;;;;;19.56;100.00;100865.25;7391558;19;20472;-80
2022/05/28 09:54:23;;;;;;;0.00;0.00;;;;;;;19.40;100.00;100868.09;7393739;19;20528;-79
2022/05/28 09:56:57;;;;;;;;;;;;;;;19.01;100.00;100862.34;7390668;19;20479;-80
2022/05/28 09:59:43;;;;;;;0.10;0.10;;;;;;;18.90;100.00;100865.91;7388859;19;19918;-80
2022/05/28 10:02:24;;;;;;;0.57;0.10;;;;;;;18.84;100.00;100864.34;7390802;19;20033;-80
2022/05/28 10:04:54;;;;;;;4.75;0.13;;;;;;;19.03;100.00;100854.13;7388279;19;20529;-79
2022/05/28 10:07:33;;;;;;;0.10;0.00;;;;;;;19.22;100.00;100858.03;7388157;19;20565;-80
2022/05/28 10:10:00;;;;;;;0.10;0.10;;;;;;;19.09;100.00;100860.56;7386933;19;20056;-80
2022/05/28 10:12:29;;;;;;;0.10;0.10;;;;;;;18.97;100.00;100855.41;7390147;19;20014;-80
2022/05/28 10:15:11;;;;;;;0.40;0.10;;;;;;;19.00;100.00;100855.16;7390386;19;20021;-80
2022/05/28 10:17:41;;;;;;;3.33;0.65;;;;;;;19.20;100.00;100854.94;7390136;19;20053;-80
2022/05/28 10:20:19;;;;;;;0.25;0.20;;;;;;;19.74;100.00;100851.91;7389906;19;20386;-81
2022/05/28 10:22:48;;;;;;;2.58;0.65;;;;;;;19.77;100.00;100845.22;7392733;19;20019;-82
2022/05/28 10:25:38;;;;;;;0.75;0.10;;;;;;;19.44;100.00;100849.59;7388832;19;20022;-81
2022/05/28 10:28:06;;;;;;;0.30;0.25;;;;;;;19.26;100.00;100847.25;7391889;19;20022;-82
2022/05/28 10:30:34;;;;;;;2.53;0.22;;;;;;;19.06;100.00;100844.63;7389119;19;20032;-82
2022/05/28 10:33:23;;;;;;;0.10;0.10;;;;;;;18.73;100.00;100842.50;7396653;19;20018;-83
2022/05/28 10:35:50;;;;;;;0.10;0.10;;;;;;;18.69;100.00;100844.03;7392933;19;20022;-82
2022/05/28 10:38:26;;;;;;;1.75;0.10;;;;;;;19.00;100.00;100846.69;7392152;19;20807;-83
2022/05/28 10:41:00;;;;;;;1.15;0.15;;;;;;;19.58;100.00;100839.31;7392035;19;20030;-84
2022/05/28 10:43:32;;;;;;;3.30;0.10;;;;;;;20.17;100.00;100833.31;7389495;19;20007;-83
2022/05/28 10:46:11;;;;;;;0.35;0.10;;;;;;;20.08;100.00;100830.75;7393747;19;20018;-83
2022/05/28 10:49:26;;;;;;;0.47;0.20;;;;;;;19.68;100.00;100830.06;7391921;19;20014;-83
2022/05/28 10:51:56;;;;;;;0.10;0.00;;;;;;;19.11;100.00;100837.44;7392247;19;20015;-82
2022/05/28 10:55:00;;;;;;;9.65;0.20;;;;;;;18.92;100.00;100845.63;7396243;19;20020;-84
2022/05/28 10:57:49;;;;;;;0.50;0.00;;;;;;;18.70;100.00;100846.34;7393876;19;20074;-92
2022/05/28 11:00:26;;;;;;;0.10;0.10;;;;;;;18.54;100.00;100837.78;7394503;19;20122;-87
2022/05/28 11:03:04;;;;;;;0.28;0.28;;;;;;;18.94;100.00;100826.13;7400839;19;20038;-87
2022/05/28 11:05:55;;;;;;;0.10;0.10;;;;;;;18.87;100.00;100832.28;7398040;19;20011;-88
2022/05/28 11:09:01;;;;;;;0.00;0.00;;;;;;;18.65;100.00;100832.97;7395538;19;20022;-87
2022/05/28 11:11:30;;;;;;;0.87;0.10;;;;;;;18.72;100.00;100831.72;7395820;19;20014;-87
2022/05/28 11:14:25;;;;;;;0.77;0.10;;;;;;;19.21;100.00;100822.56;7395107;19;20015;-87
2022/05/28 11:17:09;;;;;;;0.15;0.15;;;;;;;19.86;100.00;100816.69;7392733;19;20100;-87
2022/05/28 11:19:52;;;;;;;0.90;0.10;;;;;;;20.56;100.00;100825.50;7397834;19;20042;-88
2022/05/28 11:22:25;;;;;;;1.95;0.17;;;;;;;21.15;99.13;100824.94;7399519;19;20010;-87
2022/05/28 11:25:05;;;;;;;0.25;0.20;;;;;;;21.43;95.00;100810.53;7399604;19;20322;-87
2022/05/28 11:27:51;;;;;;;1.00;0.20;;;;;;;21.24;95.34;100813.28;7395197;19;20018;-87
2022/05/28 11:30:23;;;;;;;1.95;0.10;;;;;;;21.04;96.06;100800.28;7395474;19;20014;-86
2022/05/28 11:33:05;;;;;;;2.47;0.38;;;;;;;20.96;98.36;100801.34;7399013;19;20422;-87